FMI weather

Kalemie Airport
Katanga Province, Congo (Kinshasa)

Public forecast

Using degrees Celsius for public forecast. Weather courtesy of forecast.io.

Closest aviation weather report (METAR) to Kalemie Airport

Closest report is Kigoma Airport, 64.5 nm (119.5 km) NNE. Retrieved 2019/10/15 20:00 UTC (21 minutes ago):

HTKA 152000Z 00000KT 9999 FEW021 FEW022CB 24/19 Q1014

Closest aviation forecast (TAF) to Kalemie Airport

Forecast is more than 12 hours old.

Closest forecast is Kigoma Airport, 64.5 nm (119.5 km) NNE. Retrieved 2019/04/07 12:27 UTC (6 months ago):

TAF HTKA 071120Z 0712/0812 12013KT 9999 FEW026 FEW027CB BECMG 0714/0716 00000KT